sensor_id;sensor_type;location;lat;lon;timestamp;P1;durP1;ratioP1;P2;durP2;ratioP2
4323;SDS011;2175;51.018;6.994;2024-03-08T00:00:32;38.63;;;23.13;;
4323;SDS011;2175;51.018;6.994;2024-03-08T00:02:58;34.72;;;23.75;;
4323;SDS011;2175;51.018;6.994;2024-03-08T00:05:26;33.00;;;22.47;;
4323;SDS011;2175;51.018;6.994;2024-03-08T00:07:52;34.93;;;24.27;;
4323;SDS011;2175;51.018;6.994;2024-03-08T00:10:18;34.70;;;24.00;;
4323;SDS011;2175;51.018;6.994;2024-03-08T00:12:45;35.03;;;22.40;;
4323;SDS011;2175;51.018;6.994;2024-03-08T00:15:12;35.97;;;23.40;;
4323;SDS011;2175;51.018;6.994;2024-03-08T00:17:39;36.07;;;23.13;;
4323;SDS011;2175;51.018;6.994;2024-03-08T00:20:06;34.80;;;23.42;;
4323;SDS011;2175;51.018;6.994;2024-03-08T00:22:38;35.70;;;24.48;;
4323;SDS011;2175;51.018;6.994;2024-03-08T00:25:05;37.80;;;23.80;;
4323;SDS011;2175;51.018;6.994;2024-03-08T00:27:33;36.00;;;23.42;;
4323;SDS011;2175;51.018;6.994;2024-03-08T00:30:00;34.17;;;22.75;;
4323;SDS011;2175;51.018;6.994;2024-03-08T00:32:26;37.45;;;23.08;;
4323;SDS011;2175;51.018;6.994;2024-03-08T00:34:56;39.78;;;23.15;;
4323;SDS011;2175;51.018;6.994;2024-03-08T00:37:22;38.13;;;24.55;;
4323;SDS011;2175;51.018;6.994;2024-03-08T00:39:49;38.75;;;24.33;;
4323;SDS011;2175;51.018;6.994;2024-03-08T00:42:16;34.00;;;22.20;;
4323;SDS011;2175;51.018;6.994;2024-03-08T00:44:42;35.97;;;23.95;;
4323;SDS011;2175;51.018;6.994;2024-03-08T00:47:08;34.70;;;24.33;;
4323;SDS011;2175;51.018;6.994;2024-03-08T00:49:34;35.20;;;24.27;;
4323;SDS011;2175;51.018;6.994;2024-03-08T00:52:03;35.25;;;24.17;;
4323;SDS011;2175;51.018;6.994;2024-03-08T00:54:30;37.22;;;25.30;;
4323;SDS011;2175;51.018;6.994;2024-03-08T00:56:56;35.37;;;24.90;;
4323;SDS011;2175;51.018;6.994;2024-03-08T00:59:22;36.87;;;24.20;;
4323;SDS011;2175;51.018;6.994;2024-03-08T01:01:48;36.00;;;24.40;;
4323;SDS011;2175;51.018;6.994;2024-03-08T01:04:14;38.70;;;24.73;;
4323;SDS011;2175;51.018;6.994;2024-03-08T01:06:40;37.67;;;24.30;;
4323;SDS011;2175;51.018;6.994;2024-03-08T01:09:10;38.53;;;25.80;;
4323;SDS011;2175;51.018;6.994;2024-03-08T01:11:36;34.83;;;24.20;;
4323;SDS011;2175;51.018;6.994;2024-03-08T01:14:03;38.30;;;24.40;;
4323;SDS011;2175;51.018;6.994;2024-03-08T01:16:29;43.40;;;25.13;;
4323;SDS011;2175;51.018;6.994;2024-03-08T01:18:55;38.10;;;25.47;;
4323;SDS011;2175;51.018;6.994;2024-03-08T01:21:21;39.05;;;25.85;;
4323;SDS011;2175;51.018;6.994;2024-03-08T01:23:47;38.08;;;24.10;;
4323;SDS011;2175;51.018;6.994;2024-03-08T01:26:13;41.50;;;24.83;;
4323;SDS011;2175;51.018;6.994;2024-03-08T01:28:40;36.28;;;23.83;;
4323;SDS011;2175;51.018;6.994;2024-03-08T01:31:06;37.92;;;25.90;;
4323;SDS011;2175;51.018;6.994;2024-03-08T01:33:32;38.08;;;24.75;;
4323;SDS011;2175;51.018;6.994;2024-03-08T01:35:58;36.88;;;24.98;;
4323;SDS011;2175;51.018;6.994;2024-03-08T01:38:25;39.63;;;26.20;;
4323;SDS011;2175;51.018;6.994;2024-03-08T01:40:50;42.17;;;26.87;;
4323;SDS011;2175;51.018;6.994;2024-03-08T01:45:46;44.65;;;26.60;;
4323;SDS011;2175;51.018;6.994;2024-03-08T01:48:12;42.50;;;25.40;;
4323;SDS011;2175;51.018;6.994;2024-03-08T01:50:39;39.45;;;25.17;;
4323;SDS011;2175;51.018;6.994;2024-03-08T01:53:06;37.13;;;25.23;;
4323;SDS011;2175;51.018;6.994;2024-03-08T01:55:33;43.65;;;27.20;;
4323;SDS011;2175;51.018;6.994;2024-03-08T01:58:00;40.75;;;26.80;;
4323;SDS011;2175;51.018;6.994;2024-03-08T02:00:27;40.63;;;26.42;;
4323;SDS011;2175;51.018;6.994;2024-03-08T02:02:56;37.80;;;25.55;;
4323;SDS011;2175;51.018;6.994;2024-03-08T02:05:23;39.42;;;26.63;;
4323;SDS011;2175;51.018;6.994;2024-03-08T02:07:49;40.70;;;26.53;;
4323;SDS011;2175;51.018;6.994;2024-03-08T02:10:15;44.10;;;26.55;;
4323;SDS011;2175;51.018;6.994;2024-03-08T02:12:41;39.95;;;25.75;;
4323;SDS011;2175;51.018;6.994;2024-03-08T02:15:07;37.95;;;25.75;;
4323;SDS011;2175;51.018;6.994;2024-03-08T02:17:33;40.40;;;25.92;;
4323;SDS011;2175;51.018;6.994;2024-03-08T02:20:00;42.25;;;26.42;;
4323;SDS011;2175;51.018;6.994;2024-03-08T02:22:30;38.25;;;26.02;;
4323;SDS011;2175;51.018;6.994;2024-03-08T02:24:58;38.85;;;26.48;;
4323;SDS011;2175;51.018;6.994;2024-03-08T02:27:26;43.40;;;26.05;;
4323;SDS011;2175;51.018;6.994;2024-03-08T02:29:56;41.72;;;26.77;;
4323;SDS011;2175;51.018;6.994;2024-03-08T02:32:23;39.25;;;25.77;;
4323;SDS011;2175;51.018;6.994;2024-03-08T02:34:49;41.08;;;26.13;;
4323;SDS011;2175;51.018;6.994;2024-03-08T02:37:15;42.13;;;27.48;;
4323;SDS011;2175;51.018;6.994;2024-03-08T02:39:41;40.00;;;26.98;;
4323;SDS011;2175;51.018;6.994;2024-03-08T02:42:07;42.70;;;26.90;;
4323;SDS011;2175;51.018;6.994;2024-03-08T02:44:33;45.50;;;27.23;;
4323;SDS011;2175;51.018;6.994;2024-03-08T02:46:59;43.23;;;26.43;;
4323;SDS011;2175;51.018;6.994;2024-03-08T02:49:26;39.58;;;27.05;;
4323;SDS011;2175;51.018;6.994;2024-03-08T02:51:52;42.75;;;26.08;;
4323;SDS011;2175;51.018;6.994;2024-03-08T02:54:19;44.53;;;26.85;;
4323;SDS011;2175;51.018;6.994;2024-03-08T02:56:45;37.38;;;25.38;;
4323;SDS011;2175;51.018;6.994;2024-03-08T02:59:12;40.35;;;26.05;;
4323;SDS011;2175;51.018;6.994;2024-03-08T03:01:38;38.47;;;24.67;;
4323;SDS011;2175;51.018;6.994;2024-03-08T03:04:04;40.70;;;26.23;;
4323;SDS011;2175;51.018;6.994;2024-03-08T03:06:30;39.50;;;27.02;;
4323;SDS011;2175;51.018;6.994;2024-03-08T03:08:56;44.63;;;28.03;;
4323;SDS011;2175;51.018;6.994;2024-03-08T03:11:22;43.28;;;27.20;;
4323;SDS011;2175;51.018;6.994;2024-03-08T03:13:48;49.97;;;27.60;;
4323;SDS011;2175;51.018;6.994;2024-03-08T03:16:18;42.90;;;28.38;;
4323;SDS011;2175;51.018;6.994;2024-03-08T03:18:47;41.92;;;27.10;;
4323;SDS011;2175;51.018;6.994;2024-03-08T03:21:14;49.55;;;27.25;;
4323;SDS011;2175;51.018;6.994;2024-03-08T03:23:40;43.40;;;28.05;;
4323;SDS011;2175;51.018;6.994;2024-03-08T03:26:09;43.90;;;27.17;;
4323;SDS011;2175;51.018;6.994;2024-03-08T03:28:38;39.80;;;26.15;;
4323;SDS011;2175;51.018;6.994;2024-03-08T03:31:08;41.97;;;26.05;;
4323;SDS011;2175;51.018;6.994;2024-03-08T03:33:39;41.83;;;28.77;;
4323;SDS011;2175;51.018;6.994;2024-03-08T03:36:05;40.10;;;27.23;;
4323;SDS011;2175;51.018;6.994;2024-03-08T03:38:33;45.10;;;27.75;;
4323;SDS011;2175;51.018;6.994;2024-03-08T03:40:59;41.22;;;26.73;;
4323;SDS011;2175;51.018;6.994;2024-03-08T03:43:34;45.80;;;27.17;;
4323;SDS011;2175;51.018;6.994;2024-03-08T03:46:01;44.47;;;25.77;;
4323;SDS011;2175;51.018;6.994;2024-03-08T03:48:27;46.73;;;27.83;;
4323;SDS011;2175;51.018;6.994;2024-03-08T03:50:53;53.40;;;26.43;;
4323;SDS011;2175;51.018;6.994;2024-03-08T03:53:19;40.10;;;26.40;;
4323;SDS011;2175;51.018;6.994;2024-03-08T03:55:45;47.60;;;29.03;;
4323;SDS011;2175;51.018;6.994;2024-03-08T03:58:11;42.73;;;27.93;;
4323;SDS011;2175;51.018;6.994;2024-03-08T04:00:38;44.00;;;28.48;;
4323;SDS011;2175;51.018;6.994;2024-03-08T04:03:04;43.72;;;26.33;;
4323;SDS011;2175;51.018;6.994;2024-03-08T04:05:30;41.58;;;26.30;;
4323;SDS011;2175;51.018;6.994;2024-03-08T04:07:56;44.70;;;26.73;;
4323;SDS011;2175;51.018;6.994;2024-03-08T04:10:22;44.72;;;26.13;;
4323;SDS011;2175;51.018;6.994;2024-03-08T04:12:49;41.15;;;26.00;;
4323;SDS011;2175;51.018;6.994;2024-03-08T04:15:15;43.23;;;27.10;;
4323;SDS011;2175;51.018;6.994;2024-03-08T04:17:41;44.30;;;27.13;;
4323;SDS011;2175;51.018;6.994;2024-03-08T04:20:07;40.80;;;25.80;;
4323;SDS011;2175;51.018;6.994;2024-03-08T04:22:35;40.15;;;25.65;;
4323;SDS011;2175;51.018;6.994;2024-03-08T04:25:02;40.40;;;26.02;;
4323;SDS011;2175;51.018;6.994;2024-03-08T04:27:28;43.50;;;26.35;;
4323;SDS011;2175;51.018;6.994;2024-03-08T04:29:54;46.80;;;27.53;;
4323;SDS011;2175;51.018;6.994;2024-03-08T04:32:20;41.53;;;26.67;;
4323;SDS011;2175;51.018;6.994;2024-03-08T04:34:47;41.92;;;26.52;;
4323;SDS011;2175;51.018;6.994;2024-03-08T04:37:14;45.33;;;28.33;;
4323;SDS011;2175;51.018;6.994;2024-03-08T04:39:43;43.38;;;26.70;;
4323;SDS011;2175;51.018;6.994;2024-03-08T04:42:09;39.50;;;26.10;;
4323;SDS011;2175;51.018;6.994;2024-03-08T04:44:36;42.08;;;26.40;;
4323;SDS011;2175;51.018;6.994;2024-03-08T04:47:05;45.08;;;27.50;;
4323;SDS011;2175;51.018;6.994;2024-03-08T04:49:34;45.75;;;27.33;;
4323;SDS011;2175;51.018;6.994;2024-03-08T04:52:01;41.08;;;26.52;;
4323;SDS011;2175;51.018;6.994;2024-03-08T04:54:28;43.03;;;27.58;;
4323;SDS011;2175;51.018;6.994;2024-03-08T04:56:54;45.47;;;27.73;;
4323;SDS011;2175;51.018;6.994;2024-03-08T04:59:20;41.17;;;25.88;;
4323;SDS011;2175;51.018;6.994;2024-03-08T05:01:46;39.43;;;25.90;;
4323;SDS011;2175;51.018;6.994;2024-03-08T05:04:12;43.78;;;27.00;;
4323;SDS011;2175;51.018;6.994;2024-03-08T05:06:38;39.97;;;25.63;;
4323;SDS011;2175;51.018;6.994;2024-03-08T05:09:04;40.05;;;26.55;;
4323;SDS011;2175;51.018;6.994;2024-03-08T05:11:38;40.15;;;25.77;;
4323;SDS011;2175;51.018;6.994;2024-03-08T05:14:04;43.38;;;27.02;;
4323;SDS011;2175;51.018;6.994;2024-03-08T05:16:30;48.20;;;28.10;;
4323;SDS011;2175;51.018;6.994;2024-03-08T05:18:56;45.47;;;27.47;;
4323;SDS011;2175;51.018;6.994;2024-03-08T05:21:22;47.30;;;29.00;;
4323;SDS011;2175;51.018;6.994;2024-03-08T05:23:48;42.63;;;26.50;;
4323;SDS011;2175;51.018;6.994;2024-03-08T05:26:15;42.95;;;28.00;;
4323;SDS011;2175;51.018;6.994;2024-03-08T05:28:41;42.55;;;26.10;;
4323;SDS011;2175;51.018;6.994;2024-03-08T05:31:07;42.70;;;26.70;;
4323;SDS011;2175;51.018;6.994;2024-03-08T05:33:34;47.00;;;27.33;;
4323;SDS011;2175;51.018;6.994;2024-03-08T05:36:00;44.27;;;27.20;;
4323;SDS011;2175;51.018;6.994;2024-03-08T05:38:27;41.85;;;26.90;;
4323;SDS011;2175;51.018;6.994;2024-03-08T05:40:53;45.05;;;28.65;;
4323;SDS011;2175;51.018;6.994;2024-03-08T05:43:19;46.90;;;28.60;;
4323;SDS011;2175;51.018;6.994;2024-03-08T05:45:46;41.90;;;26.90;;
4323;SDS011;2175;51.018;6.994;2024-03-08T05:48:13;41.92;;;26.30;;
4323;SDS011;2175;51.018;6.994;2024-03-08T05:50:39;44.00;;;27.27;;
4323;SDS011;2175;51.018;6.994;2024-03-08T05:53:05;45.57;;;27.63;;
4323;SDS011;2175;51.018;6.994;2024-03-08T05:55:34;44.38;;;28.20;;
4323;SDS011;2175;51.018;6.994;2024-03-08T05:58:03;46.40;;;28.70;;
4323;SDS011;2175;51.018;6.994;2024-03-08T06:00:29;45.45;;;28.83;;
4323;SDS011;2175;51.018;6.994;2024-03-08T06:02:56;45.65;;;27.90;;
4323;SDS011;2175;51.018;6.994;2024-03-08T06:05:23;51.72;;;29.02;;
4323;SDS011;2175;51.018;6.994;2024-03-08T06:07:49;43.30;;;26.40;;
4323;SDS011;2175;51.018;6.994;2024-03-08T06:10:18;48.05;;;28.95;;
4323;SDS011;2175;51.018;6.994;2024-03-08T06:12:44;43.90;;;28.38;;
4323;SDS011;2175;51.018;6.994;2024-03-08T06:15:10;55.67;;;27.85;;
4323;SDS011;2175;51.018;6.994;2024-03-08T06:17:40;47.50;;;27.15;;
4323;SDS011;2175;51.018;6.994;2024-03-08T06:20:06;49.50;;;27.98;;
4323;SDS011;2175;51.018;6.994;2024-03-08T06:22:41;47.38;;;29.33;;
4323;SDS011;2175;51.018;6.994;2024-03-08T06:25:07;48.08;;;29.55;;
4323;SDS011;2175;51.018;6.994;2024-03-08T06:27:33;42.67;;;27.60;;
4323;SDS011;2175;51.018;6.994;2024-03-08T06:30:00;48.90;;;27.65;;
4323;SDS011;2175;51.018;6.994;2024-03-08T06:32:26;44.28;;;27.50;;
4323;SDS011;2175;51.018;6.994;2024-03-08T06:34:52;53.83;;;28.57;;
4323;SDS011;2175;51.018;6.994;2024-03-08T06:37:18;46.77;;;28.87;;
4323;SDS011;2175;51.018;6.994;2024-03-08T06:39:50;47.10;;;28.40;;
4323;SDS011;2175;51.018;6.994;2024-03-08T06:42:16;48.25;;;28.25;;
4323;SDS011;2175;51.018;6.994;2024-03-08T06:44:42;48.33;;;29.10;;
4323;SDS011;2175;51.018;6.994;2024-03-08T06:47:14;43.50;;;28.17;;
4323;SDS011;2175;51.018;6.994;2024-03-08T06:49:41;48.17;;;27.65;;
4323;SDS011;2175;51.018;6.994;2024-03-08T06:52:08;40.72;;;26.80;;
4323;SDS011;2175;51.018;6.994;2024-03-08T06:54:34;46.93;;;27.70;;
4323;SDS011;2175;51.018;6.994;2024-03-08T06:57:04;44.60;;;27.20;;
4323;SDS011;2175;51.018;6.994;2024-03-08T06:59:30;44.13;;;28.05;;
4323;SDS011;2175;51.018;6.994;2024-03-08T07:01:56;46.75;;;29.17;;
4323;SDS011;2175;51.018;6.994;2024-03-08T07:04:22;45.38;;;28.00;;
4323;SDS011;2175;51.018;6.994;2024-03-08T07:06:53;43.80;;;27.15;;
4323;SDS011;2175;51.018;6.994;2024-03-08T07:09:20;47.58;;;28.40;;
4323;SDS011;2175;51.018;6.994;2024-03-08T07:11:46;44.20;;;28.20;;
4323;SDS011;2175;51.018;6.994;2024-03-08T07:14:12;48.57;;;30.10;;
4323;SDS011;2175;51.018;6.994;2024-03-08T07:16:40;44.83;;;27.08;;
4323;SDS011;2175;51.018;6.994;2024-03-08T07:19:06;43.38;;;27.60;;
4323;SDS011;2175;51.018;6.994;2024-03-08T07:21:32;40.97;;;26.43;;
4323;SDS011;2175;51.018;6.994;2024-03-08T07:23:58;44.83;;;26.93;;
4323;SDS011;2175;51.018;6.994;2024-03-08T07:26:24;48.10;;;28.40;;
4323;SDS011;2175;51.018;6.994;2024-03-08T07:28:50;43.70;;;27.77;;
4323;SDS011;2175;51.018;6.994;2024-03-08T07:31:16;41.63;;;26.73;;
4323;SDS011;2175;51.018;6.994;2024-03-08T07:33:42;46.67;;;27.70;;
4323;SDS011;2175;51.018;6.994;2024-03-08T07:36:09;39.47;;;25.70;;
4323;SDS011;2175;51.018;6.994;2024-03-08T07:38:35;42.30;;;26.07;;
4323;SDS011;2175;51.018;6.994;2024-03-08T07:41:01;39.93;;;26.30;;
4323;SDS011;2175;51.018;6.994;2024-03-08T07:43:27;41.73;;;25.60;;
4323;SDS011;2175;51.018;6.994;2024-03-08T07:45:53;40.27;;;26.87;;
4323;SDS011;2175;51.018;6.994;2024-03-08T07:48:20;42.20;;;25.83;;
4323;SDS011;2175;51.018;6.994;2024-03-08T07:50:46;40.17;;;26.33;;
4323;SDS011;2175;51.018;6.994;2024-03-08T07:53:14;38.00;;;25.23;;
4323;SDS011;2175;51.018;6.994;2024-03-08T07:55:40;41.23;;;25.80;;
4323;SDS011;2175;51.018;6.994;2024-03-08T07:58:07;40.00;;;26.03;;
4323;SDS011;2175;51.018;6.994;2024-03-08T08:00:36;39.60;;;25.70;;
4323;SDS011;2175;51.018;6.994;2024-03-08T08:03:03;45.87;;;27.70;;
4323;SDS011;2175;51.018;6.994;2024-03-08T08:05:29;42.83;;;26.30;;
4323;SDS011;2175;51.018;6.994;2024-03-08T08:08:00;36.97;;;25.27;;
4323;SDS011;2175;51.018;6.994;2024-03-08T08:10:28;37.33;;;24.70;;
4323;SDS011;2175;51.018;6.994;2024-03-08T08:12:54;37.10;;;24.13;;
4323;SDS011;2175;51.018;6.994;2024-03-08T08:15:22;36.40;;;24.27;;
4323;SDS011;2175;51.018;6.994;2024-03-08T08:17:48;35.40;;;24.00;;
4323;SDS011;2175;51.018;6.994;2024-03-08T08:20:14;37.60;;;24.57;;
4323;SDS011;2175;51.018;6.994;2024-03-08T08:22:41;37.97;;;25.57;;
4323;SDS011;2175;51.018;6.994;2024-03-08T08:25:08;38.83;;;25.53;;
4323;SDS011;2175;51.018;6.994;2024-03-08T08:27:35;36.87;;;23.17;;
4323;SDS011;2175;51.018;6.994;2024-03-08T08:30:04;39.60;;;24.80;;
4323;SDS011;2175;51.018;6.994;2024-03-08T08:32:33;34.03;;;23.63;;
4323;SDS011;2175;51.018;6.994;2024-03-08T08:34:59;36.70;;;23.00;;
4323;SDS011;2175;51.018;6.994;2024-03-08T08:37:25;33.53;;;22.70;;
4323;SDS011;2175;51.018;6.994;2024-03-08T08:39:51;38.60;;;23.23;;
4323;SDS011;2175;51.018;6.994;2024-03-08T08:42:17;35.60;;;24.80;;
4323;SDS011;2175;51.018;6.994;2024-03-08T08:44:43;44.87;;;23.60;;
4323;SDS011;2175;51.018;6.994;2024-03-08T08:47:09;34.63;;;23.57;;
4323;SDS011;2175;51.018;6.994;2024-03-08T08:49:35;34.37;;;22.37;;
4323;SDS011;2175;51.018;6.994;2024-03-08T08:52:02;33.00;;;23.10;;
4323;SDS011;2175;51.018;6.994;2024-03-08T08:54:28;35.50;;;22.07;;
4323;SDS011;2175;51.018;6.994;2024-03-08T08:56:54;30.20;;;21.53;;
4323;SDS011;2175;51.018;6.994;2024-03-08T08:59:20;29.30;;;20.87;;
4323;SDS011;2175;51.018;6.994;2024-03-08T09:01:49;26.80;;;19.80;;
4323;SDS011;2175;51.018;6.994;2024-03-08T09:04:18;26.77;;;19.93;;
4323;SDS011;2175;51.018;6.994;2024-03-08T09:06:45;25.53;;;19.90;;
4323;SDS011;2175;51.018;6.994;2024-03-08T09:09:11;27.00;;;18.97;;
4323;SDS011;2175;51.018;6.994;2024-03-08T09:11:38;26.47;;;19.23;;
4323;SDS011;2175;51.018;6.994;2024-03-08T09:14:06;26.57;;;19.40;;
4323;SDS011;2175;51.018;6.994;2024-03-08T09:16:32;31.20;;;20.13;;
4323;SDS011;2175;51.018;6.994;2024-03-08T09:18:58;26.17;;;19.20;;
4323;SDS011;2175;51.018;6.994;2024-03-08T09:21:24;25.47;;;19.67;;
4323;SDS011;2175;51.018;6.994;2024-03-08T09:23:52;23.57;;;17.43;;
4323;SDS011;2175;51.018;6.994;2024-03-08T09:26:18;23.97;;;19.20;;
4323;SDS011;2175;51.018;6.994;2024-03-08T09:28:44;23.10;;;18.03;;
4323;SDS011;2175;51.018;6.994;2024-03-08T09:31:11;22.63;;;18.03;;
4323;SDS011;2175;51.018;6.994;2024-03-08T09:33:37;22.10;;;17.47;;
4323;SDS011;2175;51.018;6.994;2024-03-08T09:36:04;25.80;;;19.30;;
4323;SDS011;2175;51.018;6.994;2024-03-08T09:38:30;21.70;;;17.40;;
4323;SDS011;2175;51.018;6.994;2024-03-08T09:40:56;24.17;;;18.33;;
4323;SDS011;2175;51.018;6.994;2024-03-08T09:43:23;24.00;;;17.70;;
4323;SDS011;2175;51.018;6.994;2024-03-08T09:45:49;21.40;;;16.60;;
4323;SDS011;2175;51.018;6.994;2024-03-08T09:48:16;22.90;;;17.17;;
4323;SDS011;2175;51.018;6.994;2024-03-08T09:50:44;22.33;;;17.73;;
4323;SDS011;2175;51.018;6.994;2024-03-08T09:53:13;28.70;;;17.50;;
4323;SDS011;2175;51.018;6.994;2024-03-08T09:55:39;30.53;;;18.77;;
4323;SDS011;2175;51.018;6.994;2024-03-08T09:58:11;23.70;;;18.10;;
4323;SDS011;2175;51.018;6.994;2024-03-08T10:00:53;25.23;;;17.87;;
4323;SDS011;2175;51.018;6.994;2024-03-08T10:03:19;26.53;;;17.90;;
4323;SDS011;2175;51.018;6.994;2024-03-08T10:05:45;23.43;;;17.47;;
4323;SDS011;2175;51.018;6.994;2024-03-08T10:08:12;23.03;;;18.20;;
4323;SDS011;2175;51.018;6.994;2024-03-08T10:10:38;24.37;;;17.23;;
4323;SDS011;2175;51.018;6.994;2024-03-08T10:13:08;24.87;;;16.90;;
4323;SDS011;2175;51.018;6.994;2024-03-08T10:15:34;24.73;;;17.47;;
4323;SDS011;2175;51.018;6.994;2024-03-08T10:18:00;23.23;;;17.03;;
4323;SDS011;2175;51.018;6.994;2024-03-08T10:20:30;20.30;;;15.97;;
4323;SDS011;2175;51.018;6.994;2024-03-08T10:23:00;23.20;;;17.73;;
4323;SDS011;2175;51.018;6.994;2024-03-08T10:25:28;26.47;;;18.30;;
4323;SDS011;2175;51.018;6.994;2024-03-08T10:27:55;24.47;;;18.47;;
4323;SDS011;2175;51.018;6.994;2024-03-08T10:30:21;23.40;;;17.93;;
4323;SDS011;2175;51.018;6.994;2024-03-08T10:32:48;23.93;;;16.03;;
4323;SDS011;2175;51.018;6.994;2024-03-08T10:35:14;22.40;;;17.43;;
4323;SDS011;2175;51.018;6.994;2024-03-08T10:37:45;25.30;;;18.17;;
4323;SDS011;2175;51.018;6.994;2024-03-08T10:40:18;21.13;;;16.90;;
4323;SDS011;2175;51.018;6.994;2024-03-08T10:42:51;21.70;;;16.33;;
4323;SDS011;2175;51.018;6.994;2024-03-08T10:45:39;22.70;;;16.50;;
4323;SDS011;2175;51.018;6.994;2024-03-08T10:50:43;23.37;;;15.70;;
4323;SDS011;2175;51.018;6.994;2024-03-08T10:53:10;22.10;;;15.03;;
4323;SDS011;2175;51.018;6.994;2024-03-08T10:55:37;22.50;;;15.77;;
4323;SDS011;2175;51.018;6.994;2024-03-08T10:58:05;23.47;;;16.87;;
4323;SDS011;2175;51.018;6.994;2024-03-08T11:00:33;21.40;;;14.93;;
4323;SDS011;2175;51.018;6.994;2024-03-08T11:02:59;24.07;;;15.93;;
4323;SDS011;2175;51.018;6.994;2024-03-08T11:05:32;22.70;;;15.33;;
4323;SDS011;2175;51.018;6.994;2024-03-08T11:08:03;22.17;;;15.63;;
4323;SDS011;2175;51.018;6.994;2024-03-08T11:10:29;21.03;;;15.17;;
4323;SDS011;2175;51.018;6.994;2024-03-08T11:12:55;23.60;;;14.67;;
4323;SDS011;2175;51.018;6.994;2024-03-08T11:15:23;20.33;;;14.30;;
4323;SDS011;2175;51.018;6.994;2024-03-08T11:17:50;21.27;;;15.80;;
4323;SDS011;2175;51.018;6.994;2024-03-08T11:20:17;22.63;;;15.00;;
4323;SDS011;2175;51.018;6.994;2024-03-08T11:22:49;22.00;;;15.80;;
4323;SDS011;2175;51.018;6.994;2024-03-08T11:25:33;23.20;;;14.87;;
4323;SDS011;2175;51.018;6.994;2024-03-08T11:28:08;21.33;;;14.10;;
4323;SDS011;2175;51.018;6.994;2024-03-08T11:30:34;19.37;;;14.47;;
4323;SDS011;2175;51.018;6.994;2024-03-08T11:33:00;20.10;;;13.67;;
4323;SDS011;2175;51.018;6.994;2024-03-08T11:35:28;20.53;;;13.77;;
4323;SDS011;2175;51.018;6.994;2024-03-08T11:37:54;20.53;;;14.70;;
4323;SDS011;2175;51.018;6.994;2024-03-08T11:40:20;21.90;;;12.97;;
4323;SDS011;2175;51.018;6.994;2024-03-08T11:42:47;17.53;;;13.07;;
4323;SDS011;2175;51.018;6.994;2024-03-08T11:45:14;20.60;;;15.07;;
4323;SDS011;2175;51.018;6.994;2024-03-08T11:47:42;21.00;;;14.90;;
4323;SDS011;2175;51.018;6.994;2024-03-08T11:50:11;20.30;;;13.60;;
4323;SDS011;2175;51.018;6.994;2024-03-08T11:52:37;19.47;;;12.47;;
4323;SDS011;2175;51.018;6.994;2024-03-08T11:55:03;18.23;;;12.03;;
4323;SDS011;2175;51.018;6.994;2024-03-08T11:57:30;18.60;;;12.80;;
4323;SDS011;2175;51.018;6.994;2024-03-08T11:59:57;18.20;;;13.10;;
4323;SDS011;2175;51.018;6.994;2024-03-08T12:02:24;19.83;;;13.60;;
4323;SDS011;2175;51.018;6.994;2024-03-08T12:05:00;19.47;;;13.60;;
4323;SDS011;2175;51.018;6.994;2024-03-08T12:07:37;18.83;;;13.33;;
4323;SDS011;2175;51.018;6.994;2024-03-08T12:10:16;20.17;;;13.40;;
4323;SDS011;2175;51.018;6.994;2024-03-08T12:12:46;18.67;;;13.50;;
4323;SDS011;2175;51.018;6.994;2024-03-08T12:15:12;17.53;;;12.87;;
4323;SDS011;2175;51.018;6.994;2024-03-08T12:17:39;18.63;;;13.60;;
4323;SDS011;2175;51.018;6.994;2024-03-08T12:20:12;18.57;;;12.70;;
4323;SDS011;2175;51.018;6.994;2024-03-08T12:22:42;17.23;;;13.03;;
4323;SDS011;2175;51.018;6.994;2024-03-08T12:25:08;17.43;;;12.27;;
4323;SDS011;2175;51.018;6.994;2024-03-08T12:27:36;15.80;;;11.33;;
4323;SDS011;2175;51.018;6.994;2024-03-08T12:32:50;18.17;;;12.60;;
4323;SDS011;2175;51.018;6.994;2024-03-08T12:35:18;19.07;;;12.40;;
4323;SDS011;2175;51.018;6.994;2024-03-08T12:37:47;18.23;;;12.80;;
4323;SDS011;2175;51.018;6.994;2024-03-08T12:40:14;18.97;;;13.07;;
4323;SDS011;2175;51.018;6.994;2024-03-08T12:42:42;19.53;;;12.20;;
4323;SDS011;2175;51.018;6.994;2024-03-08T12:45:08;19.80;;;13.60;;
4323;SDS011;2175;51.018;6.994;2024-03-08T12:47:35;18.20;;;12.27;;
4323;SDS011;2175;51.018;6.994;2024-03-08T12:50:02;15.70;;;11.13;;
4323;SDS011;2175;51.018;6.994;2024-03-08T12:52:28;16.97;;;12.57;;
4323;SDS011;2175;51.018;6.994;2024-03-08T12:54:55;17.03;;;12.27;;
4323;SDS011;2175;51.018;6.994;2024-03-08T12:57:21;17.00;;;11.70;;
4323;SDS011;2175;51.018;6.994;2024-03-08T12:59:47;19.23;;;13.20;;
4323;SDS011;2175;51.018;6.994;2024-03-08T13:02:14;16.93;;;10.97;;
4323;SDS011;2175;51.018;6.994;2024-03-08T13:04:41;15.97;;;11.77;;
4323;SDS011;2175;51.018;6.994;2024-03-08T13:07:07;18.33;;;11.90;;
4323;SDS011;2175;51.018;6.994;2024-03-08T13:09:33;16.53;;;12.43;;
4323;SDS011;2175;51.018;6.994;2024-03-08T13:12:02;17.33;;;12.47;;
4323;SDS011;2175;51.018;6.994;2024-03-08T13:14:28;15.70;;;11.23;;
4323;SDS011;2175;51.018;6.994;2024-03-08T13:16:57;15.97;;;11.33;;
4323;SDS011;2175;51.018;6.994;2024-03-08T13:19:24;17.87;;;12.47;;
4323;SDS011;2175;51.018;6.994;2024-03-08T13:21:53;16.23;;;11.10;;
4323;SDS011;2175;51.018;6.994;2024-03-08T13:24:19;16.97;;;11.67;;
4323;SDS011;2175;51.018;6.994;2024-03-08T13:26:45;15.17;;;10.60;;
4323;SDS011;2175;51.018;6.994;2024-03-08T13:29:11;13.10;;;10.03;;
4323;SDS011;2175;51.018;6.994;2024-03-08T13:31:39;14.10;;;10.50;;
4323;SDS011;2175;51.018;6.994;2024-03-08T13:34:05;14.63;;;10.90;;
4323;SDS011;2175;51.018;6.994;2024-03-08T13:36:31;14.17;;;10.57;;
4323;SDS011;2175;51.018;6.994;2024-03-08T13:39:04;17.60;;;11.00;;
4323;SDS011;2175;51.018;6.994;2024-03-08T13:41:40;15.90;;;10.90;;
4323;SDS011;2175;51.018;6.994;2024-03-08T13:44:06;16.70;;;10.57;;
4323;SDS011;2175;51.018;6.994;2024-03-08T13:46:32;20.40;;;11.90;;
4323;SDS011;2175;51.018;6.994;2024-03-08T13:49:03;14.00;;;10.40;;
4323;SDS011;2175;51.018;6.994;2024-03-08T13:51:31;13.50;;;10.33;;
4323;SDS011;2175;51.018;6.994;2024-03-08T13:53:57;15.83;;;10.83;;
4323;SDS011;2175;51.018;6.994;2024-03-08T13:56:25;18.93;;;11.80;;
4323;SDS011;2175;51.018;6.994;2024-03-08T13:58:51;16.80;;;12.13;;
4323;SDS011;2175;51.018;6.994;2024-03-08T14:01:17;25.10;;;14.60;;
4323;SDS011;2175;51.018;6.994;2024-03-08T14:03:43;20.27;;;13.50;;
4323;SDS011;2175;51.018;6.994;2024-03-08T14:06:10;16.73;;;11.57;;
4323;SDS011;2175;51.018;6.994;2024-03-08T14:08:37;20.00;;;13.80;;
4323;SDS011;2175;51.018;6.994;2024-03-08T14:11:04;22.83;;;14.33;;
4323;SDS011;2175;51.018;6.994;2024-03-08T14:13:40;15.60;;;12.13;;
4323;SDS011;2175;51.018;6.994;2024-03-08T14:16:07;16.60;;;12.03;;
4323;SDS011;2175;51.018;6.994;2024-03-08T14:18:35;18.73;;;13.37;;
4323;SDS011;2175;51.018;6.994;2024-03-08T14:21:01;19.50;;;14.33;;
4323;SDS011;2175;51.018;6.994;2024-03-08T14:23:29;18.23;;;14.13;;
4323;SDS011;2175;51.018;6.994;2024-03-08T14:25:55;19.10;;;13.30;;
4323;SDS011;2175;51.018;6.994;2024-03-08T14:28:21;21.73;;;14.30;;
4323;SDS011;2175;51.018;6.994;2024-03-08T14:30:48;18.33;;;14.50;;
4323;SDS011;2175;51.018;6.994;2024-03-08T14:33:14;22.40;;;16.00;;
4323;SDS011;2175;51.018;6.994;2024-03-08T14:35:41;23.97;;;15.10;;
4323;SDS011;2175;51.018;6.994;2024-03-08T14:38:12;22.73;;;15.17;;
4323;SDS011;2175;51.018;6.994;2024-03-08T14:40:38;22.90;;;14.63;;
4323;SDS011;2175;51.018;6.994;2024-03-08T14:43:05;22.87;;;15.10;;
4323;SDS011;2175;51.018;6.994;2024-03-08T14:45:31;20.93;;;14.50;;
4323;SDS011;2175;51.018;6.994;2024-03-08T14:47:57;24.03;;;15.80;;
4323;SDS011;2175;51.018;6.994;2024-03-08T14:50:24;19.40;;;14.63;;
4323;SDS011;2175;51.018;6.994;2024-03-08T14:52:51;23.03;;;15.17;;
4323;SDS011;2175;51.018;6.994;2024-03-08T14:55:18;20.13;;;15.33;;